< < Back
Terminal Aerodrome Forecast


Current Version              Previous Versions:   1  2  3  4  5  6  7  8  9  

Terminal Aerodrome Forecast

147
FTUS42 KJAX 202300
TAFGNV
TAF
KGNV 202326Z 2100/2124 36006KT P6SM BKN015 OVC025
     FM211400 01010KT P6SM SCT025=

Latest METAR

988
SAUS70 KWBC 210900
MTRGNV
METAR KGNV 210853Z AUTO 32004KT 10SM OVC028 14/13 A3007 RMK AO2 SLP182
T01390128 56008


USA.gov is the U.S. government's official web portal to all federal, state and local government web resources and services.